sensor_id;sensor_type;location;lat;lon;timestamp;P1;durP1;ratioP1;P2;durP2;ratioP2
51686;SDS011;37774;52.192;4.584;2022-10-15T00:00:34;43.85;;;18.60;;
51686;SDS011;37774;52.192;4.584;2022-10-15T00:03:00;41.75;;;17.20;;
51686;SDS011;37774;52.192;4.584;2022-10-15T00:05:27;51.72;;;18.83;;
51686;SDS011;37774;52.192;4.584;2022-10-15T00:07:54;50.65;;;20.70;;
51686;SDS011;37774;52.192;4.584;2022-10-15T00:10:21;48.67;;;19.13;;
51686;SDS011;37774;52.192;4.584;2022-10-15T00:12:49;51.03;;;19.83;;
51686;SDS011;37774;52.192;4.584;2022-10-15T00:15:16;53.13;;;19.73;;
51686;SDS011;37774;52.192;4.584;2022-10-15T00:17:43;44.47;;;19.05;;
51686;SDS011;37774;52.192;4.584;2022-10-15T00:20:10;56.70;;;18.60;;
51686;SDS011;37774;52.192;4.584;2022-10-15T00:22:37;53.55;;;19.83;;
51686;SDS011;37774;52.192;4.584;2022-10-15T00:25:04;51.05;;;19.35;;
51686;SDS011;37774;52.192;4.584;2022-10-15T00:27:32;42.10;;;18.85;;
51686;SDS011;37774;52.192;4.584;2022-10-15T00:30:00;44.78;;;20.10;;
51686;SDS011;37774;52.192;4.584;2022-10-15T00:32:27;45.05;;;19.77;;
51686;SDS011;37774;52.192;4.584;2022-10-15T00:34:55;49.90;;;21.05;;
51686;SDS011;37774;52.192;4.584;2022-10-15T00:37:21;50.15;;;20.58;;
51686;SDS011;37774;52.192;4.584;2022-10-15T00:39:48;52.47;;;21.05;;
51686;SDS011;37774;52.192;4.584;2022-10-15T00:42:15;46.08;;;19.23;;
51686;SDS011;37774;52.192;4.584;2022-10-15T00:44:46;44.88;;;19.58;;
51686;SDS011;37774;52.192;4.584;2022-10-15T00:47:17;49.15;;;20.30;;
51686;SDS011;37774;52.192;4.584;2022-10-15T00:49:50;54.90;;;21.23;;
51686;SDS011;37774;52.192;4.584;2022-10-15T00:52:27;48.33;;;18.13;;
51686;SDS011;37774;52.192;4.584;2022-10-15T00:54:58;49.25;;;20.30;;
51686;SDS011;37774;52.192;4.584;2022-10-15T00:57:29;48.00;;;20.60;;
51686;SDS011;37774;52.192;4.584;2022-10-15T00:59:57;44.50;;;20.83;;
51686;SDS011;37774;52.192;4.584;2022-10-15T01:02:29;50.70;;;20.15;;
51686;SDS011;37774;52.192;4.584;2022-10-15T01:04:56;62.75;;;20.63;;
51686;SDS011;37774;52.192;4.584;2022-10-15T01:07:23;55.60;;;19.70;;
51686;SDS011;37774;52.192;4.584;2022-10-15T01:09:49;52.40;;;20.33;;
51686;SDS011;37774;52.192;4.584;2022-10-15T01:12:18;61.88;;;21.60;;
51686;SDS011;37774;52.192;4.584;2022-10-15T01:14:55;58.58;;;20.67;;
51686;SDS011;37774;52.192;4.584;2022-10-15T01:17:31;51.28;;;20.75;;
51686;SDS011;37774;52.192;4.584;2022-10-15T01:20:12;57.25;;;19.65;;
51686;SDS011;37774;52.192;4.584;2022-10-15T01:26:24;49.85;;;22.00;;
51686;SDS011;37774;52.192;4.584;2022-10-15T01:29:39;55.35;;;22.95;;
51686;SDS011;37774;52.192;4.584;2022-10-15T01:32:20;50.40;;;22.42;;
51686;SDS011;37774;52.192;4.584;2022-10-15T01:34:52;55.70;;;22.77;;
51686;SDS011;37774;52.192;4.584;2022-10-15T01:37:24;55.47;;;23.52;;
51686;SDS011;37774;52.192;4.584;2022-10-15T01:40:01;62.40;;;23.17;;
51686;SDS011;37774;52.192;4.584;2022-10-15T01:42:36;59.72;;;22.98;;
51686;SDS011;37774;52.192;4.584;2022-10-15T01:45:09;66.43;;;25.65;;
51686;SDS011;37774;52.192;4.584;2022-10-15T01:47:42;53.95;;;22.05;;
51686;SDS011;37774;52.192;4.584;2022-10-15T01:50:14;50.30;;;21.67;;
51686;SDS011;37774;52.192;4.584;2022-10-15T01:52:44;53.03;;;21.42;;
51686;SDS011;37774;52.192;4.584;2022-10-15T01:55:11;57.15;;;22.13;;
51686;SDS011;37774;52.192;4.584;2022-10-15T01:57:41;55.05;;;21.48;;
51686;SDS011;37774;52.192;4.584;2022-10-15T02:00:10;56.83;;;21.35;;
51686;SDS011;37774;52.192;4.584;2022-10-15T02:02:38;60.08;;;22.52;;
51686;SDS011;37774;52.192;4.584;2022-10-15T02:05:08;63.53;;;23.25;;
51686;SDS011;37774;52.192;4.584;2022-10-15T02:07:40;59.10;;;22.55;;
51686;SDS011;37774;52.192;4.584;2022-10-15T02:10:16;58.53;;;23.55;;
51686;SDS011;37774;52.192;4.584;2022-10-15T02:12:49;56.20;;;22.63;;
51686;SDS011;37774;52.192;4.584;2022-10-15T02:15:25;52.00;;;22.65;;
51686;SDS011;37774;52.192;4.584;2022-10-15T02:18:00;61.10;;;24.95;;
51686;SDS011;37774;52.192;4.584;2022-10-15T02:20:34;53.75;;;23.00;;
51686;SDS011;37774;52.192;4.584;2022-10-15T02:23:08;62.38;;;22.48;;
51686;SDS011;37774;52.192;4.584;2022-10-15T02:25:40;63.60;;;22.63;;
51686;SDS011;37774;52.192;4.584;2022-10-15T02:28:09;55.22;;;23.17;;
51686;SDS011;37774;52.192;4.584;2022-10-15T02:30:39;54.97;;;22.52;;
51686;SDS011;37774;52.192;4.584;2022-10-15T02:33:09;49.83;;;23.30;;
51686;SDS011;37774;52.192;4.584;2022-10-15T02:35:38;56.30;;;22.05;;
51686;SDS011;37774;52.192;4.584;2022-10-15T02:38:06;51.10;;;22.38;;
51686;SDS011;37774;52.192;4.584;2022-10-15T02:40:36;56.65;;;23.00;;
51686;SDS011;37774;52.192;4.584;2022-10-15T02:43:04;64.88;;;24.50;;
51686;SDS011;37774;52.192;4.584;2022-10-15T02:45:34;62.63;;;23.90;;
51686;SDS011;37774;52.192;4.584;2022-10-15T02:48:01;58.95;;;23.65;;
51686;SDS011;37774;52.192;4.584;2022-10-15T02:50:28;65.32;;;24.83;;
51686;SDS011;37774;52.192;4.584;2022-10-15T02:52:56;67.72;;;24.35;;
51686;SDS011;37774;52.192;4.584;2022-10-15T02:55:23;67.63;;;26.63;;
51686;SDS011;37774;52.192;4.584;2022-10-15T02:57:49;57.53;;;24.80;;
51686;SDS011;37774;52.192;4.584;2022-10-15T03:00:16;70.32;;;26.00;;
51686;SDS011;37774;52.192;4.584;2022-10-15T03:02:44;69.57;;;24.73;;
51686;SDS011;37774;52.192;4.584;2022-10-15T03:05:10;70.10;;;25.55;;
51686;SDS011;37774;52.192;4.584;2022-10-15T03:07:37;62.50;;;24.45;;
51686;SDS011;37774;52.192;4.584;2022-10-15T03:10:06;63.05;;;24.48;;
51686;SDS011;37774;52.192;4.584;2022-10-15T03:12:33;65.82;;;26.55;;
51686;SDS011;37774;52.192;4.584;2022-10-15T03:15:00;66.38;;;25.60;;
51686;SDS011;37774;52.192;4.584;2022-10-15T03:17:27;70.20;;;26.88;;
51686;SDS011;37774;52.192;4.584;2022-10-15T03:19:54;80.10;;;28.20;;
51686;SDS011;37774;52.192;4.584;2022-10-15T03:22:21;78.32;;;27.52;;
51686;SDS011;37774;52.192;4.584;2022-10-15T03:24:48;64.40;;;25.70;;
51686;SDS011;37774;52.192;4.584;2022-10-15T03:27:16;91.68;;;30.05;;
51686;SDS011;37774;52.192;4.584;2022-10-15T03:29:43;78.20;;;29.38;;
51686;SDS011;37774;52.192;4.584;2022-10-15T03:32:09;72.07;;;27.60;;
51686;SDS011;37774;52.192;4.584;2022-10-15T03:34:36;73.05;;;26.30;;
51686;SDS011;37774;52.192;4.584;2022-10-15T03:37:03;70.07;;;27.25;;
51686;SDS011;37774;52.192;4.584;2022-10-15T03:39:31;73.47;;;27.25;;
51686;SDS011;37774;52.192;4.584;2022-10-15T03:41:58;72.93;;;26.35;;
51686;SDS011;37774;52.192;4.584;2022-10-15T03:44:26;80.60;;;27.92;;
51686;SDS011;37774;52.192;4.584;2022-10-15T03:46:53;81.05;;;28.13;;
51686;SDS011;37774;52.192;4.584;2022-10-15T03:49:20;73.15;;;27.38;;
51686;SDS011;37774;52.192;4.584;2022-10-15T03:51:46;71.10;;;26.88;;
51686;SDS011;37774;52.192;4.584;2022-10-15T03:54:13;76.95;;;26.70;;
51686;SDS011;37774;52.192;4.584;2022-10-15T03:56:40;81.63;;;26.52;;
51686;SDS011;37774;52.192;4.584;2022-10-15T03:59:06;72.25;;;28.17;;
51686;SDS011;37774;52.192;4.584;2022-10-15T04:01:35;74.63;;;27.83;;
51686;SDS011;37774;52.192;4.584;2022-10-15T04:04:01;67.72;;;27.50;;
51686;SDS011;37774;52.192;4.584;2022-10-15T04:06:28;77.07;;;27.80;;
51686;SDS011;37774;52.192;4.584;2022-10-15T04:08:58;66.18;;;27.02;;
51686;SDS011;37774;52.192;4.584;2022-10-15T04:11:25;83.50;;;28.92;;
51686;SDS011;37774;52.192;4.584;2022-10-15T04:13:52;74.63;;;26.45;;
51686;SDS011;37774;52.192;4.584;2022-10-15T04:16:18;79.25;;;28.70;;
51686;SDS011;37774;52.192;4.584;2022-10-15T04:18:47;76.97;;;30.05;;
51686;SDS011;37774;52.192;4.584;2022-10-15T04:21:13;73.22;;;27.00;;
51686;SDS011;37774;52.192;4.584;2022-10-15T04:23:40;76.43;;;26.27;;
51686;SDS011;37774;52.192;4.584;2022-10-15T04:26:07;97.43;;;28.98;;
51686;SDS011;37774;52.192;4.584;2022-10-15T04:28:34;80.25;;;28.90;;
51686;SDS011;37774;52.192;4.584;2022-10-15T04:31:01;87.90;;;29.05;;
51686;SDS011;37774;52.192;4.584;2022-10-15T04:33:27;91.15;;;30.15;;
51686;SDS011;37774;52.192;4.584;2022-10-15T04:36:00;86.63;;;28.55;;
51686;SDS011;37774;52.192;4.584;2022-10-15T04:38:28;84.13;;;30.40;;
51686;SDS011;37774;52.192;4.584;2022-10-15T04:40:59;78.88;;;27.88;;
51686;SDS011;37774;52.192;4.584;2022-10-15T04:43:27;89.28;;;30.35;;
51686;SDS011;37774;52.192;4.584;2022-10-15T04:45:54;88.50;;;30.33;;
51686;SDS011;37774;52.192;4.584;2022-10-15T04:48:22;80.53;;;27.10;;
51686;SDS011;37774;52.192;4.584;2022-10-15T04:50:49;78.60;;;30.65;;
51686;SDS011;37774;52.192;4.584;2022-10-15T04:53:18;84.35;;;30.73;;
51686;SDS011;37774;52.192;4.584;2022-10-15T04:55:45;85.93;;;30.80;;
51686;SDS011;37774;52.192;4.584;2022-10-15T04:58:11;101.43;;;32.53;;
51686;SDS011;37774;52.192;4.584;2022-10-15T05:00:38;93.45;;;31.65;;
51686;SDS011;37774;52.192;4.584;2022-10-15T05:03:05;83.30;;;30.38;;
51686;SDS011;37774;52.192;4.584;2022-10-15T05:05:32;85.32;;;33.00;;
51686;SDS011;37774;52.192;4.584;2022-10-15T05:07:59;86.20;;;30.13;;
51686;SDS011;37774;52.192;4.584;2022-10-15T05:10:27;80.40;;;30.67;;
51686;SDS011;37774;52.192;4.584;2022-10-15T05:12:55;77.75;;;30.55;;
51686;SDS011;37774;52.192;4.584;2022-10-15T05:15:21;88.80;;;31.58;;
51686;SDS011;37774;52.192;4.584;2022-10-15T05:17:50;71.15;;;30.65;;
51686;SDS011;37774;52.192;4.584;2022-10-15T05:20:17;80.30;;;30.15;;
51686;SDS011;37774;52.192;4.584;2022-10-15T05:22:44;79.90;;;29.90;;
51686;SDS011;37774;52.192;4.584;2022-10-15T05:25:10;73.82;;;29.48;;
51686;SDS011;37774;52.192;4.584;2022-10-15T05:27:38;73.00;;;27.52;;
51686;SDS011;37774;52.192;4.584;2022-10-15T05:30:05;77.80;;;28.98;;
51686;SDS011;37774;52.192;4.584;2022-10-15T05:32:33;63.85;;;28.02;;
51686;SDS011;37774;52.192;4.584;2022-10-15T05:34:59;72.07;;;29.42;;
51686;SDS011;37774;52.192;4.584;2022-10-15T05:37:26;74.47;;;29.83;;
51686;SDS011;37774;52.192;4.584;2022-10-15T05:39:53;77.28;;;28.15;;
51686;SDS011;37774;52.192;4.584;2022-10-15T05:42:20;73.78;;;26.85;;
51686;SDS011;37774;52.192;4.584;2022-10-15T05:44:48;73.25;;;29.67;;
51686;SDS011;37774;52.192;4.584;2022-10-15T05:47:15;61.40;;;25.75;;
51686;SDS011;37774;52.192;4.584;2022-10-15T05:49:41;87.05;;;28.75;;
51686;SDS011;37774;52.192;4.584;2022-10-15T05:52:08;75.68;;;29.60;;
51686;SDS011;37774;52.192;4.584;2022-10-15T05:54:35;70.32;;;28.65;;
51686;SDS011;37774;52.192;4.584;2022-10-15T05:57:02;71.35;;;28.40;;
51686;SDS011;37774;52.192;4.584;2022-10-15T05:59:29;62.28;;;26.30;;
51686;SDS011;37774;52.192;4.584;2022-10-15T06:01:57;78.75;;;29.33;;
51686;SDS011;37774;52.192;4.584;2022-10-15T06:04:23;79.28;;;27.98;;
51686;SDS011;37774;52.192;4.584;2022-10-15T06:06:50;100.38;;;30.00;;
51686;SDS011;37774;52.192;4.584;2022-10-15T06:09:17;75.07;;;29.05;;
51686;SDS011;37774;52.192;4.584;2022-10-15T06:11:44;73.82;;;28.95;;
51686;SDS011;37774;52.192;4.584;2022-10-15T06:14:11;69.82;;;28.75;;
51686;SDS011;37774;52.192;4.584;2022-10-15T06:16:37;73.43;;;29.50;;
51686;SDS011;37774;52.192;4.584;2022-10-15T06:19:06;82.57;;;29.92;;
51686;SDS011;37774;52.192;4.584;2022-10-15T06:21:32;96.72;;;30.70;;
51686;SDS011;37774;52.192;4.584;2022-10-15T06:23:59;73.18;;;29.52;;
51686;SDS011;37774;52.192;4.584;2022-10-15T06:26:26;79.35;;;28.70;;
51686;SDS011;37774;52.192;4.584;2022-10-15T06:28:52;86.13;;;30.30;;
51686;SDS011;37774;52.192;4.584;2022-10-15T06:31:19;85.03;;;31.45;;
51686;SDS011;37774;52.192;4.584;2022-10-15T06:33:46;89.38;;;31.42;;
51686;SDS011;37774;52.192;4.584;2022-10-15T06:36:14;79.00;;;30.77;;
51686;SDS011;37774;52.192;4.584;2022-10-15T06:38:41;90.45;;;30.05;;
51686;SDS011;37774;52.192;4.584;2022-10-15T06:41:15;88.25;;;30.38;;
51686;SDS011;37774;52.192;4.584;2022-10-15T06:43:42;85.78;;;30.08;;
51686;SDS011;37774;52.192;4.584;2022-10-15T06:46:10;80.03;;;28.55;;
51686;SDS011;37774;52.192;4.584;2022-10-15T06:48:37;78.05;;;28.80;;
51686;SDS011;37774;52.192;4.584;2022-10-15T06:51:03;74.22;;;28.02;;
51686;SDS011;37774;52.192;4.584;2022-10-15T06:53:32;75.38;;;28.60;;
51686;SDS011;37774;52.192;4.584;2022-10-15T06:56:00;80.53;;;28.48;;
51686;SDS011;37774;52.192;4.584;2022-10-15T06:58:27;81.78;;;28.02;;
51686;SDS011;37774;52.192;4.584;2022-10-15T07:00:58;82.25;;;27.52;;
51686;SDS011;37774;52.192;4.584;2022-10-15T07:03:25;74.75;;;29.05;;
51686;SDS011;37774;52.192;4.584;2022-10-15T07:05:52;69.57;;;25.95;;
51686;SDS011;37774;52.192;4.584;2022-10-15T07:08:19;78.10;;;26.30;;
51686;SDS011;37774;52.192;4.584;2022-10-15T07:10:47;78.82;;;26.65;;
51686;SDS011;37774;52.192;4.584;2022-10-15T07:13:14;66.15;;;24.75;;
51686;SDS011;37774;52.192;4.584;2022-10-15T07:15:40;68.72;;;25.92;;
51686;SDS011;37774;52.192;4.584;2022-10-15T07:18:08;72.93;;;25.40;;
51686;SDS011;37774;52.192;4.584;2022-10-15T07:20:35;65.50;;;23.90;;
51686;SDS011;37774;52.192;4.584;2022-10-15T07:23:02;66.45;;;24.50;;
51686;SDS011;37774;52.192;4.584;2022-10-15T07:25:29;64.00;;;22.95;;
51686;SDS011;37774;52.192;4.584;2022-10-15T07:27:58;63.95;;;24.00;;
51686;SDS011;37774;52.192;4.584;2022-10-15T07:30:25;71.57;;;23.35;;
51686;SDS011;37774;52.192;4.584;2022-10-15T07:32:52;63.88;;;23.27;;
51686;SDS011;37774;52.192;4.584;2022-10-15T07:35:21;61.80;;;20.25;;
51686;SDS011;37774;52.192;4.584;2022-10-15T07:37:47;66.85;;;20.15;;
51686;SDS011;37774;52.192;4.584;2022-10-15T07:40:15;70.55;;;20.98;;
51686;SDS011;37774;52.192;4.584;2022-10-15T07:42:42;73.15;;;23.02;;
51686;SDS011;37774;52.192;4.584;2022-10-15T07:45:10;71.63;;;21.42;;
51686;SDS011;37774;52.192;4.584;2022-10-15T07:47:38;72.40;;;23.42;;
51686;SDS011;37774;52.192;4.584;2022-10-15T07:50:06;88.90;;;24.35;;
51686;SDS011;37774;52.192;4.584;2022-10-15T07:52:33;75.18;;;23.13;;
51686;SDS011;37774;52.192;4.584;2022-10-15T07:55:00;80.40;;;23.10;;
51686;SDS011;37774;52.192;4.584;2022-10-15T07:57:26;81.65;;;24.75;;
51686;SDS011;37774;52.192;4.584;2022-10-15T07:59:53;71.70;;;23.77;;
51686;SDS011;37774;52.192;4.584;2022-10-15T08:02:21;75.78;;;23.42;;
51686;SDS011;37774;52.192;4.584;2022-10-15T08:04:48;71.65;;;23.80;;
51686;SDS011;37774;52.192;4.584;2022-10-15T08:07:15;59.17;;;23.20;;
51686;SDS011;37774;52.192;4.584;2022-10-15T08:09:41;70.25;;;22.88;;
51686;SDS011;37774;52.192;4.584;2022-10-15T08:12:08;66.43;;;23.75;;
51686;SDS011;37774;52.192;4.584;2022-10-15T08:14:35;91.60;;;25.20;;
51686;SDS011;37774;52.192;4.584;2022-10-15T08:17:02;84.10;;;24.77;;
51686;SDS011;37774;52.192;4.584;2022-10-15T08:19:31;90.05;;;25.73;;
51686;SDS011;37774;52.192;4.584;2022-10-15T08:21:58;99.28;;;25.10;;
51686;SDS011;37774;52.192;4.584;2022-10-15T08:24:25;90.25;;;26.20;;
51686;SDS011;37774;52.192;4.584;2022-10-15T08:26:52;90.70;;;27.17;;
51686;SDS011;37774;52.192;4.584;2022-10-15T08:29:19;92.38;;;25.15;;
51686;SDS011;37774;52.192;4.584;2022-10-15T08:31:45;85.55;;;26.60;;
51686;SDS011;37774;52.192;4.584;2022-10-15T08:34:13;109.55;;;28.67;;
51686;SDS011;37774;52.192;4.584;2022-10-15T08:36:41;83.25;;;25.42;;
51686;SDS011;37774;52.192;4.584;2022-10-15T08:39:08;86.15;;;25.65;;
51686;SDS011;37774;52.192;4.584;2022-10-15T08:41:36;90.95;;;26.88;;
51686;SDS011;37774;52.192;4.584;2022-10-15T08:44:08;89.05;;;24.83;;
51686;SDS011;37774;52.192;4.584;2022-10-15T08:46:42;82.40;;;24.00;;
51686;SDS011;37774;52.192;4.584;2022-10-15T08:49:13;85.22;;;24.88;;
51686;SDS011;37774;52.192;4.584;2022-10-15T08:51:53;83.78;;;25.42;;
51686;SDS011;37774;52.192;4.584;2022-10-15T08:54:24;79.32;;;24.20;;
51686;SDS011;37774;52.192;4.584;2022-10-15T08:56:53;70.75;;;24.35;;
51686;SDS011;37774;52.192;4.584;2022-10-15T08:59:29;76.32;;;24.50;;
51686;SDS011;37774;52.192;4.584;2022-10-15T09:02:03;68.15;;;23.85;;
51686;SDS011;37774;52.192;4.584;2022-10-15T09:04:40;64.45;;;23.23;;
51686;SDS011;37774;52.192;4.584;2022-10-15T09:07:18;66.97;;;24.83;;
51686;SDS011;37774;52.192;4.584;2022-10-15T09:09:52;60.17;;;22.70;;
51686;SDS011;37774;52.192;4.584;2022-10-15T09:12:30;62.78;;;21.88;;
51686;SDS011;37774;52.192;4.584;2022-10-15T09:15:04;53.83;;;21.33;;
51686;SDS011;37774;52.192;4.584;2022-10-15T09:17:38;58.00;;;22.15;;
51686;SDS011;37774;52.192;4.584;2022-10-15T09:20:12;48.72;;;20.42;;
51686;SDS011;37774;52.192;4.584;2022-10-15T09:22:42;52.25;;;21.85;;
51686;SDS011;37774;52.192;4.584;2022-10-15T09:25:14;56.80;;;22.60;;
51686;SDS011;37774;52.192;4.584;2022-10-15T09:27:42;47.03;;;20.60;;
51686;SDS011;37774;52.192;4.584;2022-10-15T09:30:16;47.78;;;21.10;;
51686;SDS011;37774;52.192;4.584;2022-10-15T09:32:52;44.15;;;20.42;;
51686;SDS011;37774;52.192;4.584;2022-10-15T09:35:25;41.85;;;21.80;;
51686;SDS011;37774;52.192;4.584;2022-10-15T09:37:59;41.50;;;19.13;;
51686;SDS011;37774;52.192;4.584;2022-10-15T09:40:40;39.60;;;17.85;;
51686;SDS011;37774;52.192;4.584;2022-10-15T09:43:19;44.85;;;19.05;;
51686;SDS011;37774;52.192;4.584;2022-10-15T09:45:51;40.28;;;17.75;;
51686;SDS011;37774;52.192;4.584;2022-10-15T09:48:18;34.33;;;17.38;;
51686;SDS011;37774;52.192;4.584;2022-10-15T09:50:49;40.38;;;17.50;;
51686;SDS011;37774;52.192;4.584;2022-10-15T09:53:27;37.13;;;15.98;;
51686;SDS011;37774;52.192;4.584;2022-10-15T09:56:07;31.08;;;16.42;;
51686;SDS011;37774;52.192;4.584;2022-10-15T09:58:40;35.88;;;16.08;;
51686;SDS011;37774;52.192;4.584;2022-10-15T10:01:18;32.10;;;15.30;;
51686;SDS011;37774;52.192;4.584;2022-10-15T10:03:50;36.70;;;15.30;;
51686;SDS011;37774;52.192;4.584;2022-10-15T10:06:19;30.83;;;13.82;;
51686;SDS011;37774;52.192;4.584;2022-10-15T10:08:50;38.80;;;15.02;;
51686;SDS011;37774;52.192;4.584;2022-10-15T10:11:20;31.67;;;13.73;;
51686;SDS011;37774;52.192;4.584;2022-10-15T10:13:52;32.17;;;14.15;;
51686;SDS011;37774;52.192;4.584;2022-10-15T10:16:20;30.23;;;12.68;;
51686;SDS011;37774;52.192;4.584;2022-10-15T10:19:01;28.08;;;12.65;;
51686;SDS011;37774;52.192;4.584;2022-10-15T10:21:30;29.20;;;12.10;;
51686;SDS011;37774;52.192;4.584;2022-10-15T10:24:15;26.45;;;12.18;;
51686;SDS011;37774;52.192;4.584;2022-10-15T10:26:44;29.05;;;11.48;;
51686;SDS011;37774;52.192;4.584;2022-10-15T10:29:14;24.63;;;11.35;;
51686;SDS011;37774;52.192;4.584;2022-10-15T10:31:45;18.13;;;9.98;;
51686;SDS011;37774;52.192;4.584;2022-10-15T10:34:16;22.73;;;10.05;;
51686;SDS011;37774;52.192;4.584;2022-10-15T10:36:47;22.85;;;9.80;;
51686;SDS011;37774;52.192;4.584;2022-10-15T10:39:18;20.17;;;9.85;;
51686;SDS011;37774;52.192;4.584;2022-10-15T10:41:52;20.95;;;9.02;;
51686;SDS011;37774;52.192;4.584;2022-10-15T10:44:24;18.10;;;8.93;;
51686;SDS011;37774;52.192;4.584;2022-10-15T10:47:07;19.50;;;8.35;;
51686;SDS011;37774;52.192;4.584;2022-10-15T10:49:37;15.38;;;7.03;;
51686;SDS011;37774;52.192;4.584;2022-10-15T10:52:07;16.50;;;7.80;;
51686;SDS011;37774;52.192;4.584;2022-10-15T10:54:46;13.23;;;7.00;;
51686;SDS011;37774;52.192;4.584;2022-10-15T10:57:18;10.63;;;6.22;;
51686;SDS011;37774;52.192;4.584;2022-10-15T10:59:52;12.75;;;6.43;;
51686;SDS011;37774;52.192;4.584;2022-10-15T11:02:21;9.57;;;5.18;;
51686;SDS011;37774;52.192;4.584;2022-10-15T11:04:49;12.15;;;6.18;;
51686;SDS011;37774;52.192;4.584;2022-10-15T11:07:16;10.52;;;5.40;;
51686;SDS011;37774;52.192;4.584;2022-10-15T11:09:49;10.15;;;4.93;;
51686;SDS011;37774;52.192;4.584;2022-10-15T11:12:38;10.13;;;5.13;;
51686;SDS011;37774;52.192;4.584;2022-10-15T11:15:13;10.35;;;4.85;;
51686;SDS011;37774;52.192;4.584;2022-10-15T11:17:44;7.00;;;3.85;;
51686;SDS011;37774;52.192;4.584;2022-10-15T11:20:14;7.90;;;4.57;;
51686;SDS011;37774;52.192;4.584;2022-10-15T11:22:46;8.80;;;4.28;;
51686;SDS011;37774;52.192;4.584;2022-10-15T11:25:22;6.72;;;3.65;;
51686;SDS011;37774;52.192;4.584;2022-10-15T11:28:00;8.38;;;4.20;;
51686;SDS011;37774;52.192;4.584;2022-10-15T11:30:33;8.13;;;4.00;;
51686;SDS011;37774;52.192;4.584;2022-10-15T11:33:06;7.50;;;4.50;;
51686;SDS011;37774;52.192;4.584;2022-10-15T11:35:37;8.15;;;4.22;;
51686;SDS011;37774;52.192;4.584;2022-10-15T11:38:11;6.53;;;4.03;;
51686;SDS011;37774;52.192;4.584;2022-10-15T11:40:42;9.00;;;4.38;;
51686;SDS011;37774;52.192;4.584;2022-10-15T11:43:16;7.10;;;3.95;;
51686;SDS011;37774;52.192;4.584;2022-10-15T11:45:59;6.25;;;3.38;;
51686;SDS011;37774;52.192;4.584;2022-10-15T11:48:34;9.68;;;4.45;;
51686;SDS011;37774;52.192;4.584;2022-10-15T11:51:04;9.18;;;4.45;;
51686;SDS011;37774;52.192;4.584;2022-10-15T11:53:40;8.48;;;4.05;;
51686;SDS011;37774;52.192;4.584;2022-10-15T11:56:11;8.80;;;4.20;;
51686;SDS011;37774;52.192;4.584;2022-10-15T11:58:42;7.53;;;3.72;;
51686;SDS011;37774;52.192;4.584;2022-10-15T12:01:10;10.60;;;5.25;;
51686;SDS011;37774;52.192;4.584;2022-10-15T12:03:41;9.65;;;5.35;;
51686;SDS011;37774;52.192;4.584;2022-10-15T12:06:12;11.00;;;5.60;;
51686;SDS011;37774;52.192;4.584;2022-10-15T12:08:39;9.20;;;4.63;;
51686;SDS011;37774;52.192;4.584;2022-10-15T12:11:10;10.38;;;5.45;;
51686;SDS011;37774;52.192;4.584;2022-10-15T12:13:39;13.98;;;6.40;;
51686;SDS011;37774;52.192;4.584;2022-10-15T12:16:11;13.73;;;5.90;;
51686;SDS011;37774;52.192;4.584;2022-10-15T12:18:42;13.70;;;7.18;;
51686;SDS011;37774;52.192;4.584;2022-10-15T12:23:59;10.85;;;6.47;;
51686;SDS011;37774;52.192;4.584;2022-10-15T12:26:30;9.27;;;6.25;;
51686;SDS011;37774;52.192;4.584;2022-10-15T12:28:58;11.95;;;6.15;;
51686;SDS011;37774;52.192;4.584;2022-10-15T12:31:26;10.40;;;5.10;;
51686;SDS011;37774;52.192;4.584;2022-10-15T12:34:17;8.18;;;4.65;;
51686;SDS011;37774;52.192;4.584;2022-10-15T12:36:57;7.55;;;5.32;;
51686;SDS011;37774;52.192;4.584;2022-10-15T12:39:24;11.70;;;5.13;;
51686;SDS011;37774;52.192;4.584;2022-10-15T12:41:51;8.25;;;5.28;;
51686;SDS011;37774;52.192;4.584;2022-10-15T12:44:18;9.05;;;5.53;;
51686;SDS011;37774;52.192;4.584;2022-10-15T12:46:47;8.10;;;5.43;;
51686;SDS011;37774;52.192;4.584;2022-10-15T12:51:59;5.50;;;3.50;;
51686;SDS011;37774;52.192;4.584;2022-10-15T12:54:36;6.40;;;4.03;;
51686;SDS011;37774;52.192;4.584;2022-10-15T12:59:54;6.13;;;2.75;;
51686;SDS011;37774;52.192;4.584;2022-10-15T13:02:34;4.57;;;2.70;;
51686;SDS011;37774;52.192;4.584;2022-10-15T13:05:01;3.72;;;2.42;;
51686;SDS011;37774;52.192;4.584;2022-10-15T13:07:28;4.25;;;1.95;;
51686;SDS011;37774;52.192;4.584;2022-10-15T13:09:55;5.53;;;1.48;;
51686;SDS011;37774;52.192;4.584;2022-10-15T13:12:22;3.63;;;1.33;;
51686;SDS011;37774;52.192;4.584;2022-10-15T13:14:51;0.77;;;0.65;;
51686;SDS011;37774;52.192;4.584;2022-10-15T13:17:20;5.10;;;1.02;;
51686;SDS011;37774;52.192;4.584;2022-10-15T13:19:51;2.05;;;1.20;;
51686;SDS011;37774;52.192;4.584;2022-10-15T13:22:20;5.68;;;1.15;;
51686;SDS011;37774;52.192;4.584;2022-10-15T13:24:46;1.55;;;0.93;;
51686;SDS011;37774;52.192;4.584;2022-10-15T13:27:14;1.58;;;0.80;;
51686;SDS011;37774;52.192;4.584;2022-10-15T13:29:51;7.50;;;1.13;;
51686;SDS011;37774;52.192;4.584;2022-10-15T13:32:18;1.33;;;0.50;;
51686;SDS011;37774;52.192;4.584;2022-10-15T13:34:45;3.70;;;0.65;;
51686;SDS011;37774;52.192;4.584;2022-10-15T13:37:14;3.47;;;0.50;;
51686;SDS011;37774;52.192;4.584;2022-10-15T13:39:42;3.95;;;0.40;;
51686;SDS011;37774;52.192;4.584;2022-10-15T13:42:12;6.25;;;0.82;;
51686;SDS011;37774;52.192;4.584;2022-10-15T13:44:39;2.95;;;0.40;;
51686;SDS011;37774;52.192;4.584;2022-10-15T13:47:21;1.52;;;0.43;;
51686;SDS011;37774;52.192;4.584;2022-10-15T13:49:48;4.25;;;0.50;;
51686;SDS011;37774;52.192;4.584;2022-10-15T13:52:16;4.18;;;0.73;;
51686;SDS011;37774;52.192;4.584;2022-10-15T13:54:43;8.68;;;0.57;;
51686;SDS011;37774;52.192;4.584;2022-10-15T13:57:12;4.60;;;0.98;;
51686;SDS011;37774;52.192;4.584;2022-10-15T13:59:42;4.57;;;0.50;;
51686;SDS011;37774;52.192;4.584;2022-10-15T14:02:09;3.88;;;0.60;;
51686;SDS011;37774;52.192;4.584;2022-10-15T14:04:36;5.95;;;0.70;;
51686;SDS011;37774;52.192;4.584;2022-10-15T14:07:17;4.68;;;0.47;;
51686;SDS011;37774;52.192;4.584;2022-10-15T14:09:46;8.55;;;0.77;;
51686;SDS011;37774;52.192;4.584;2022-10-15T14:12:13;6.03;;;1.20;;
51686;SDS011;37774;52.192;4.584;2022-10-15T14:14:40;6.88;;;1.27;;
51686;SDS011;37774;52.192;4.584;2022-10-15T14:17:09;8.10;;;0.70;;
51686;SDS011;37774;52.192;4.584;2022-10-15T14:19:43;7.55;;;0.80;;
51686;SDS011;37774;52.192;4.584;2022-10-15T14:22:14;3.55;;;0.57;;
51686;SDS011;37774;52.192;4.584;2022-10-15T14:24:43;6.40;;;1.05;;
51686;SDS011;37774;52.192;4.584;2022-10-15T14:27:13;6.20;;;0.65;;
51686;SDS011;37774;52.192;4.584;2022-10-15T14:29:41;3.15;;;0.60;;
51686;SDS011;37774;52.192;4.584;2022-10-15T14:32:22;6.15;;;0.95;;
51686;SDS011;37774;52.192;4.584;2022-10-15T14:34:49;7.28;;;1.00;;
51686;SDS011;37774;52.192;4.584;2022-10-15T14:40:09;8.82;;;1.60;;
51686;SDS011;37774;52.192;4.584;2022-10-15T14:42:38;1.58;;;0.68;;
51686;SDS011;37774;52.192;4.584;2022-10-15T14:45:12;5.05;;;0.80;;
51686;SDS011;37774;52.192;4.584;2022-10-15T14:47:39;4.28;;;0.82;;
51686;SDS011;37774;52.192;4.584;2022-10-15T14:50:08;4.97;;;0.70;;
51686;SDS011;37774;52.192;4.584;2022-10-15T14:52:35;10.20;;;1.27;;
51686;SDS011;37774;52.192;4.584;2022-10-15T14:55:03;2.80;;;0.90;;
51686;SDS011;37774;52.192;4.584;2022-10-15T14:57:33;6.75;;;0.70;;